KPSK

New River Valley Airport

Dublin, Virginia, USA
METAR KPSK 230510Z AUTO 00000KT 10SM CLR 04/03 A3022 RMK AO2 T00410025
Observed Flight Rules
Oct-23 @ 05:10 UTC (31 minutes ago) Visual Flight Rules
Visibility Clouds
10 miles
  • Clear skies
Temperatures Readings
Current 4°C / 39°F
Dewpoint 3°C / 37°F
Humidity 93%
Altimeter 30.22" Hg
Pressure 1023 hPa
Elevation 642
METAR KPSK 230510Z AUTO 00000KT 10SM CLR 04/03 A3022 RMK AO2 T00410025
Observed Flight Rules
Oct-23 @ 05:10 UTC
(31 minutes ago)
VFR
Clouds
  • Clear skies
Temperature Dewpoint
4°C / 39°F 3°C / 37°F
Humidity Altimeter Pressure
93% 30.22" Hg 1023 hPa